CheckWX is a tool to help pilots better visualize weather data.  It is not intended as a substitute for an official pre-flight weather briefing.

21:01:34 UTC

EBCI METAR
Brussels South Charleroi Airport
Brussels, Belgium
Current

12 mins ago

EBCI 232050Z 17003KT 140V200 CAVOK 16/07 Q1017 NOSIG
Observed
May-23 @ 20:50 UTC
Wind
  • 170° at 3 KTS
Visibility
10,000+ meters
Flight Rules
VFR
Cloud Levels
  • Clear skies
Temperature
16°C / 61°F
Dewpoint
C / 45°F
Humidity
55%
Altimeter
30.03" Hg
Pressure
1016.92 hPa
Previous

42 mins ago

EBCI 232020Z 19002KT CAVOK 16/07 Q1017 NOSIG
Observed
May-23 @ 20:20 UTC
Wind
  • 190° at 2 KTS
Visibility
10,000+ meters
Flight Rules
VFR
Cloud Levels
  • Clear skies
Temperature
16°C / 61°F
Dewpoint
C / 45°F
Humidity
55%
Altimeter
30.03" Hg
Pressure
1016.92 hPa
Previous

2 hours ago

EBCI 231920Z 15002KT CAVOK 18/07 Q1017 NOSIG
Observed
May-23 @ 19:20 UTC
Wind
  • 150° at 2 KTS
Visibility
10,000+ meters
Flight Rules
VFR
Cloud Levels
  • Clear skies
Temperature
18°C / 64°F
Dewpoint
C / 45°F
Humidity
49%
Altimeter
30.03" Hg
Pressure
1016.92 hPa